NRT weather

Narita International Airport
Tokyo, Chiba Prefecture, Japan

Public forecast

Using degrees Celsius for public forecast. Weather courtesy of forecast.io.

METAR (pilot weather report)

Retrieved 2017/07/23 04:30 UTC (0 seconds ago):

RJAA 230430Z 19009KT 160V220 9999 FEW025 BKN160 BKN/// 28/23 Q1006 NOSIG

TAF (pilot weather forecast)

Forecast is more than 12 hours old.

Retrieved 2017/07/22 06:13 UTC (22 hours ago):

TAF RJAA 220507Z 2206/2312 19010KT 9999 FEW020 SCT030